Time;durP1;ratioP1;P1;durP2;ratioP2;P2;SDS_P1;SDS_P2;PMS_P1;PMS_P2;Temp;Humidity;BMP_temperature;BMP_pressure;BME280_temperature;BME280_humidity;BME280_pressure;Samples;Min_cycle;Max_cycle;Signal;HPM_P1;HPM_P2
2022/03/04 00:00:31;;;;;;;4.88;2.25;;;15.60;78.40;;;;;;2012309;28;20249;-81
2022/03/04 00:01:30;;;;;;;4.25;3.35;;;15.60;78.40;;;;;;2011731;28;20621;-80
2022/03/04 00:02:28;;;;;;;4.10;3.00;;;15.60;78.40;;;;;;2011840;28;20180;-80
2022/03/04 00:03:27;;;;;;;5.10;3.33;;;15.60;78.40;;;;;;2012293;28;20204;-80
2022/03/04 00:04:26;;;;;;;7.93;2.70;;;15.60;78.50;;;;;;2012507;28;20259;-80
2022/03/04 00:05:25;;;;;;;4.30;2.92;;;15.60;78.50;;;;;;2012358;28;20187;-80
2022/03/04 00:06:24;;;;;;;4.40;2.67;;;15.60;78.50;;;;;;2012502;28;20179;-81
2022/03/04 00:07:22;;;;;;;5.70;3.40;;;15.60;78.50;;;;;;2012353;28;20575;-81
2022/03/04 00:08:21;;;;;;;4.90;3.10;;;15.50;78.40;;;;;;2011658;28;20175;-81
2022/03/04 00:09:20;;;;;;;4.10;2.60;;;15.60;78.60;;;;;;2003673;28;20173;-80
2022/03/04 00:10:19;;;;;;;5.72;2.95;;;15.60;78.50;;;;;;2011413;28;20187;-80
2022/03/04 00:11:18;;;;;;;5.10;2.63;;;15.60;78.60;;;;;;2012275;28;20184;-80
2022/03/04 00:12:17;;;;;;;3.55;2.78;;;15.60;78.70;;;;;;2012209;28;20183;-80
2022/03/04 00:13:15;;;;;;;4.10;2.90;;;15.60;78.60;;;;;;2012213;28;20192;-80
2022/03/04 00:14:14;;;;;;;5.73;3.23;;;15.50;78.60;;;;;;2011648;28;20714;-81
2022/03/04 00:15:13;;;;;;;5.77;3.70;;;15.50;78.80;;;;;;2011739;28;20169;-81
2022/03/04 00:16:12;;;;;;;3.80;2.63;;;15.50;78.70;;;;;;2013905;28;20183;-80
2022/03/04 00:17:10;;;;;;;4.10;3.00;;;15.60;78.80;;;;;;2013961;28;20179;-80
2022/03/04 00:18:09;;;;;;;6.10;3.00;;;15.60;78.80;;;;;;2013989;28;20546;-81
2022/03/04 00:19:09;;;;;;;4.20;2.90;;;15.50;78.70;;;;;;2013814;28;20659;-80
2022/03/04 00:20:09;;;;;;;4.50;2.60;;;15.50;78.80;;;;;;2013208;28;20231;-80
2022/03/04 00:21:09;;;;;;;3.90;3.20;;;15.50;79.00;;;;;;2013315;28;20507;-80
2022/03/04 00:22:07;;;;;;;3.35;2.47;;;15.50;79.00;;;;;;2013931;28;20184;-80
2022/03/04 00:23:06;;;;;;;3.80;3.10;;;15.50;79.00;;;;;;2013818;28;20655;-80
2022/03/04 00:24:06;;;;;;;4.43;3.13;;;15.60;79.10;;;;;;2013068;28;20691;-81
2022/03/04 00:25:05;;;;;;;2.90;2.60;;;15.50;79.00;;;;;;2013344;28;20177;-79
2022/03/04 00:26:04;;;;;;;4.10;3.30;;;15.60;79.90;;;;;;2013747;28;20271;-81
2022/03/04 00:27:03;;;;;;;4.07;2.97;;;15.60;79.10;;;;;;2013926;28;20417;-81
2022/03/04 00:28:02;;;;;;;4.70;3.00;;;15.50;78.90;;;;;;2013827;28;20484;-82
2022/03/04 00:29:01;;;;;;;3.23;2.47;;;15.60;79.10;;;;;;2013970;28;20635;-81
2022/03/04 00:30:00;;;;;;;3.37;2.40;;;15.50;79.10;;;;;;2013836;28;20180;-81
2022/03/04 00:30:58;;;;;;;5.33;3.27;;;15.50;79.30;;;;;;2013910;28;20737;-80
2022/03/04 00:31:57;;;;;;;3.80;2.37;;;15.50;79.20;;;;;;2013796;28;20430;-80
2022/03/04 00:32:55;;;;;;;4.47;3.10;;;15.50;79.30;;;;;;2013781;28;20192;-81
2022/03/04 00:33:54;;;;;;;4.07;2.70;;;15.50;79.30;;;;;;2013832;28;20173;-82
2022/03/04 00:34:53;;;;;;;3.50;2.77;;;15.50;79.40;;;;;;2013662;28;20234;-81
2022/03/04 00:35:53;;;;;;;11.03;3.27;;;15.50;79.40;;;;;;2013691;28;20203;-80
2022/03/04 00:36:52;;;;;;;3.00;2.58;;;15.50;79.50;;;;;;2013820;28;20181;-81
2022/03/04 00:37:51;;;;;;;5.30;2.60;;;15.60;79.60;;;;;;2013926;28;20181;-81
2022/03/04 00:38:51;;;;;;;4.03;3.43;;;15.50;79.40;;;;;;2013856;28;20713;-80
2022/03/04 00:39:49;;;;;;;4.40;3.30;;;15.50;79.40;;;;;;2013737;28;20184;-80
2022/03/04 00:40:48;;;;;;;4.20;2.90;;;15.50;79.50;;;;;;2013708;28;20172;-80
2022/03/04 00:41:47;;;;;;;3.80;3.10;;;15.50;80.20;;;;;;2013845;28;20176;-79
2022/03/04 00:42:46;;;;;;;7.80;3.20;;;15.50;79.70;;;;;;2013470;28;20196;-80
2022/03/04 00:43:47;;;;;;;4.40;3.20;;;15.50;79.70;;;;;;2013720;28;20200;-80
2022/03/04 00:44:45;;;;;;;4.40;2.90;;;15.50;79.70;;;;;;2013704;28;20172;-80
2022/03/04 00:45:44;;;;;;;5.83;2.90;;;15.50;79.80;;;;;;2013894;28;20251;-80
2022/03/04 00:46:43;;;;;;;5.10;3.20;;;15.50;79.70;;;;;;2013588;28;20195;-82
2022/03/04 00:47:42;;;;;;;3.87;3.20;;;15.50;79.80;;;;;;2013508;28;20411;-80
2022/03/04 00:48:41;;;;;;;4.20;3.27;;;15.50;79.70;;;;;;2013730;28;20187;-81
2022/03/04 00:49:40;;;;;;;4.10;3.42;;;15.50;79.90;;;;;;2013780;28;20172;-81
2022/03/04 00:50:38;;;;;;;4.17;2.90;;;15.50;79.90;;;;;;2013686;28;20584;-81
2022/03/04 00:51:37;;;;;;;4.37;3.57;;;15.50;80.00;;;;;;2013676;28;20215;-81
2022/03/04 00:52:35;;;;;;;3.20;2.80;;;15.50;80.00;;;;;;2013650;28;20175;-81
2022/03/04 00:53:34;;;;;;;3.87;3.00;;;15.50;80.10;;;;;;2013009;28;20184;-81
2022/03/04 00:54:33;;;;;;;4.70;2.70;;;15.40;80.10;;;;;;2013070;28;20644;-81
2022/03/04 00:55:35;;;;;;;4.17;2.67;;;15.40;80.10;;;;;;2012985;28;20185;-81
2022/03/04 00:56:34;;;;;;;5.47;3.28;;;15.50;80.50;;;;;;2013178;28;20412;-81
2022/03/04 00:57:33;;;;;;;4.60;3.33;;;15.40;80.40;;;;;;2013760;28;20212;-81
2022/03/04 00:58:32;;;;;;;4.83;3.17;;;15.50;80.60;;;;;;2013702;28;20563;-81
2022/03/04 00:59:31;;;;;;;4.80;3.10;;;15.50;80.60;;;;;;2013460;28;20619;-81
2022/03/04 01:00:29;;;;;;;4.83;3.37;;;15.40;80.50;;;;;;2013622;28;20255;-81
2022/03/04 01:01:28;;;;;;;4.43;2.80;;;15.50;80.60;;;;;;2013848;28;20191;-81
2022/03/04 01:02:26;;;;;;;3.90;2.80;;;15.40;80.70;;;;;;2013555;28;20247;-81
2022/03/04 01:03:25;;;;;;;5.00;3.00;;;15.40;80.70;;;;;;2013508;28;20180;-81
2022/03/04 01:04:24;;;;;;;3.30;3.00;;;15.40;80.80;;;;;;2013683;28;20173;-80
2022/03/04 01:05:22;;;;;;;4.50;2.53;;;15.40;80.90;;;;;;2013731;28;20406;-80
2022/03/04 01:06:21;;;;;;;4.70;3.00;;;15.40;80.90;;;;;;2013570;28;20208;-80
2022/03/04 01:07:20;;;;;;;3.63;2.60;;;15.40;81.00;;;;;;2013555;28;20187;-80
2022/03/04 01:08:18;;;;;;;3.93;3.00;;;15.40;81.10;;;;;;2013567;28;20200;-81
2022/03/04 01:09:17;;;;;;;13.80;2.70;;;15.40;81.20;;;;;;2013562;28;20251;-80
2022/03/04 01:10:16;;;;;;;4.73;2.47;;;15.40;82.00;;;;;;2013648;28;20169;-80
2022/03/04 01:11:15;;;;;;;3.67;2.65;;;15.40;81.40;;;;;;2013627;28;20619;-80
2022/03/04 01:12:13;;;;;;;4.47;3.30;;;15.40;81.30;;;;;;2013573;28;20235;-80
2022/03/04 01:13:12;;;;;;;3.53;2.77;;;15.40;81.50;;;;;;2013476;28;20195;-80
2022/03/04 01:14:11;;;;;;;4.93;2.97;;;15.40;81.60;;;;;;2013644;28;20200;-80
2022/03/04 01:15:09;;;;;;;3.50;3.07;;;15.40;81.70;;;;;;2013449;28;20415;-80
2022/03/04 01:16:08;;;;;;;5.03;3.03;;;15.40;81.90;;;;;;2013605;28;20179;-80
2022/03/04 01:17:07;;;;;;;6.40;3.47;;;15.40;81.80;;;;;;2013346;28;20211;-80
2022/03/04 01:18:05;;;;;;;3.40;3.07;;;15.40;81.80;;;;;;2013426;28;20203;-80
2022/03/04 01:19:04;;;;;;;6.30;3.60;;;15.40;82.20;;;;;;2013468;28;20237;-79
2022/03/04 01:20:05;;;;;;;7.03;3.15;;;15.40;82.00;;;;;;2013570;28;20545;-79
2022/03/04 01:21:03;;;;;;;3.55;2.95;;;15.40;82.10;;;;;;2013498;28;20181;-80
2022/03/04 01:22:02;;;;;;;3.87;2.83;;;15.40;82.00;;;;;;2013454;28;20200;-80
2022/03/04 01:23:01;;;;;;;3.83;2.83;;;15.40;82.20;;;;;;2013447;28;20279;-80
2022/03/04 01:24:00;;;;;;;6.97;3.73;;;15.40;82.40;;;;;;2013096;28;20746;-80
2022/03/04 01:24:58;;;;;;;3.20;2.30;;;15.40;82.60;;;;;;2013173;28;20407;-80
2022/03/04 01:25:57;;;;;;;4.60;3.43;;;15.40;82.50;;;;;;2013279;28;20638;-79
2022/03/04 01:26:55;;;;;;;4.03;2.77;;;15.40;82.60;;;;;;2013079;28;20218;-79
2022/03/04 01:27:54;;;;;;;3.60;3.30;;;15.40;83.00;;;;;;2013407;28;20662;-80
2022/03/04 01:28:53;;;;;;;4.97;3.50;;;15.40;82.80;;;;;;2013376;28;20177;-80
2022/03/04 01:29:52;;;;;;;5.10;3.30;;;15.40;82.80;;;;;;2013323;28;20251;-79
2022/03/04 01:30:50;;;;;;;4.80;3.63;;;15.40;83.00;;;;;;2013615;28;20177;-79
2022/03/04 01:31:49;;;;;;;4.97;3.67;;;15.30;82.80;;;;;;2013504;28;20173;-80
2022/03/04 01:32:48;;;;;;;4.57;3.53;;;15.40;83.00;;;;;;2013358;28;20212;-80
2022/03/04 01:33:46;;;;;;;4.93;3.30;;;15.30;82.80;;;;;;2013443;28;20302;-79
2022/03/04 01:34:45;;;;;;;4.30;3.30;;;15.40;83.00;;;;;;2012723;28;20196;-80
2022/03/04 01:35:44;;;;;;;6.10;3.40;;;15.40;83.30;;;;;;2012762;28;20616;-79
2022/03/04 01:36:42;;;;;;;4.67;3.10;;;15.30;83.60;;;;;;2013495;28;20571;-80
2022/03/04 01:37:41;;;;;;;4.27;3.27;;;15.40;83.90;;;;;;2012727;28;20230;-81
2022/03/04 01:38:40;;;;;;;4.75;2.75;;;15.40;84.10;;;;;;2012870;28;20180;-80
2022/03/04 01:39:38;;;;;;;5.20;3.33;;;15.40;84.60;;;;;;2013366;28;20180;-80
2022/03/04 01:40:37;;;;;;;4.90;3.30;;;15.40;85.60;;;;;;2012664;28;20176;-80
2022/03/04 01:41:36;;;;;;;4.87;3.10;;;15.40;85.90;;;;;;2012818;28;20327;-79
2022/03/04 01:42:35;;;;;;;5.53;3.43;;;15.30;86.20;;;;;;2013172;28;20580;-79
2022/03/04 01:43:35;;;;;;;5.53;3.70;;;15.40;87.00;;;;;;2013221;28;20212;-81
2022/03/04 01:44:33;;;;;;;4.38;3.35;;;15.40;87.00;;;;;;2012680;28;20184;-80
2022/03/04 01:45:32;;;;;;;6.07;3.23;;;15.30;86.30;;;;;;2012870;28;20263;-80
2022/03/04 01:46:32;;;;;;;6.00;3.60;;;15.40;86.00;;;;;;2013370;28;20251;-80
2022/03/04 01:47:31;;;;;;;4.55;3.03;;;15.40;86.50;;;;;;2013343;28;20176;-81
2022/03/04 01:48:29;;;;;;;5.40;3.60;;;15.50;87.20;;;;;;2013442;28;20303;-81
2022/03/04 01:49:28;;;;;;;4.40;3.27;;;15.40;87.30;;;;;;2013330;28;20409;-81
2022/03/04 01:50:27;;;;;;;3.83;3.00;;;15.30;88.30;;;;;;2013327;28;20568;-81
2022/03/04 01:51:25;;;;;;;4.00;3.10;;;15.40;89.30;;;;;;2013303;28;20166;-81
2022/03/04 01:52:24;;;;;;;7.10;3.93;;;15.30;88.90;;;;;;2013249;28;20391;-81
2022/03/04 01:53:23;;;;;;;7.57;3.40;;;15.30;86.50;;;;;;2013223;28;20482;-81
2022/03/04 01:54:21;;;;;;;3.93;2.90;;;15.30;85.10;;;;;;2013128;28;20403;-81
2022/03/04 01:55:20;;;;;;;6.30;3.77;;;15.40;85.20;;;;;;2013213;28;20247;-81
2022/03/04 01:56:19;;;;;;;5.80;3.30;;;15.30;85.20;;;;;;2013438;28;20542;-81
2022/03/04 01:57:17;;;;;;;4.73;3.57;;;15.30;85.40;;;;;;2013338;28;20586;-81
2022/03/04 01:58:16;;;;;;;5.00;3.10;;;15.30;85.60;;;;;;2013285;28;20188;-81
2022/03/04 01:59:17;;;;;;;4.67;3.23;;;15.30;85.80;;;;;;2013251;28;20180;-81
2022/03/04 02:00:16;;;;;;;5.50;3.30;;;15.30;86.20;;;;;;2013178;28;20236;-81
2022/03/04 02:01:14;;;;;;;5.33;3.50;;;15.30;87.10;;;;;;2013159;28;20173;-81
2022/03/04 02:02:13;;;;;;;4.67;3.40;;;15.30;88.40;;;;;;2013254;28;20869;-81
2022/03/04 02:03:11;;;;;;;3.73;3.13;;;15.30;89.70;;;;;;2013014;28;20194;-81
2022/03/04 02:04:10;;;;;;;6.20;3.70;;;15.20;90.20;;;;;;2013109;28;20203;-80
2022/03/04 02:05:16;;;;;;;9.20;4.60;;;15.20;90.70;;;;;;2013154;28;20175;-80
2022/03/04 02:06:15;;;;;;;5.07;3.50;;;15.20;92.00;;;;;;2012939;28;20511;-80
2022/03/04 02:07:14;;;;;;;5.50;3.50;;;15.20;92.00;;;;;;2012409;28;20180;-80
2022/03/04 02:08:13;;;;;;;4.77;3.37;;;;;;;;;;2004607;28;20404;-80
2022/03/04 02:09:12;;;;;;;7.60;4.30;;;;;;;;;;2012176;28;20863;-80
2022/03/04 02:10:11;;;;;;;4.03;3.50;;;;;;;;;;2013059;28;20259;-80
2022/03/04 02:11:10;;;;;;;5.30;3.33;;;15.50;91.60;;;;;;2013166;28;20455;-80
2022/03/04 02:12:09;;;;;;;4.57;3.67;;;15.30;93.40;;;;;;2013237;28;20196;-80
2022/03/04 02:13:07;;;;;;;6.00;4.03;;;15.30;91.40;;;;;;2012932;28;20199;-80
2022/03/04 02:14:06;;;;;;;4.90;3.47;;;15.20;91.50;;;;;;2013152;28;20172;-80
2022/03/04 02:15:06;;;;;;;3.63;3.07;;;15.20;90.60;;;;;;2013004;28;20231;-80
2022/03/04 02:16:17;;;;;;;4.65;2.83;;;15.30;91.30;;;;;;2013021;28;20264;-80
2022/03/04 02:17:16;;;;;;;5.75;3.60;;;15.30;91.70;;;;;;2013131;28;20153;-80
2022/03/04 02:18:17;;;;;;;5.70;4.10;;;15.20;91.70;;;;;;2012848;28;20714;-80
2022/03/04 02:19:17;;;;;;;4.28;3.15;;;15.20;91.50;;;;;;2013042;28;20234;-80
2022/03/04 02:20:18;;;;;;;3.80;3.03;;;15.10;90.50;;;;;;2013004;28;20173;-80
2022/03/04 02:21:20;;;;;;;6.00;2.83;;;15.10;91.80;;;;;;2012933;28;20188;-80
2022/03/04 02:22:18;;;;;;;4.75;2.78;;;15.20;90.90;;;;;;2013205;28;20242;-79
2022/03/04 02:23:19;;;;;;;3.60;3.10;;;15.10;90.90;;;;;;2012779;28;20721;-80
2022/03/04 02:24:19;;;;;;;4.50;3.47;;;15.20;90.20;;;;;;2012954;28;20169;-80
2022/03/04 02:25:17;;;;;;;4.18;3.00;;;15.20;91.10;;;;;;2013040;28;20180;-80
2022/03/04 02:26:16;;;;;;;6.83;3.53;;;15.20;91.60;;;;;;2012933;28;20193;-80
2022/03/04 02:27:14;;;;;;;4.30;3.23;;;15.20;92.10;;;;;;2012933;28;20181;-80
2022/03/04 02:28:13;;;;;;;5.20;3.60;;;15.10;91.10;;;;;;2012914;28;20636;-80
2022/03/04 02:29:12;;;;;;;4.10;3.50;;;15.20;91.70;;;;;;2012912;28;20196;-80
2022/03/04 02:30:11;;;;;;;5.75;3.58;;;15.10;91.90;;;;;;2012906;28;20169;-80
2022/03/04 02:31:13;;;;;;;6.80;3.92;;;15.20;90.50;;;;;;2013071;28;20532;-80
2022/03/04 02:32:12;;;;;;;7.13;2.97;;;15.20;90.30;;;;;;2012881;28;20165;-80
2022/03/04 02:33:11;;;;;;;4.67;3.50;;;15.20;90.40;;;;;;2012813;28;20193;-80
2022/03/04 02:34:10;;;;;;;4.03;2.90;;;15.20;90.10;;;;;;2012787;28;20176;-80
2022/03/04 02:35:08;;;;;;;3.33;3.03;;;15.20;90.60;;;;;;2012916;28;20172;-80
2022/03/04 02:36:07;;;;;;;4.47;3.37;;;15.20;90.80;;;;;;2012872;28;20246;-80
2022/03/04 02:37:05;;;;;;;3.90;3.10;;;15.10;91.10;;;;;;2012798;28;20200;-80
2022/03/04 02:38:04;;;;;;;3.43;2.90;;;15.20;88.90;;;;;;2012374;28;20211;-80
2022/03/04 02:39:03;;;;;;;5.10;3.77;;;15.20;88.90;;;;;;2012633;28;20627;-80
2022/03/04 02:40:03;;;;;;;5.05;3.08;;;15.20;88.70;;;;;;2012859;28;20242;-81
2022/03/04 02:41:02;;;;;;;4.63;2.77;;;15.10;89.00;;;;;;2012948;28;20184;-80
2022/03/04 02:42:01;;;;;;;3.65;2.90;;;15.20;89.40;;;;;;2012924;28;20871;-81
2022/03/04 02:42:59;;;;;;;4.23;3.73;;;15.10;89.00;;;;;;2011969;28;20387;-82
2022/03/04 02:43:58;;;;;;;2.97;2.67;;;15.20;89.30;;;;;;2012455;28;20542;-79
2022/03/04 02:44:56;;;;;;;6.10;3.07;;;15.10;89.30;;;;;;2012949;28;20176;-80
2022/03/04 02:45:56;;;;;;;5.03;3.90;;;15.10;89.80;;;;;;2012923;28;20168;-81
2022/03/04 02:46:55;;;;;;;4.47;3.28;;;15.20;88.50;;;;;;2012817;28;20180;-81
2022/03/04 02:47:54;;;;;;;3.77;3.07;;;15.20;88.80;;;;;;2012213;28;20185;-81
2022/03/04 02:48:52;;;;;;;5.97;3.40;;;15.10;89.30;;;;;;2012268;28;20169;-81
2022/03/04 02:49:51;;;;;;;5.53;3.50;;;15.10;88.90;;;;;;2012870;28;20292;-80
2022/03/04 02:50:49;;;;;;;5.30;3.10;;;15.10;88.50;;;;;;2012843;28;20623;-80
2022/03/04 02:51:48;;;;;;;4.17;3.07;;;15.10;89.30;;;;;;2012660;28;20195;-79
2022/03/04 02:52:48;;;;;;;3.30;2.50;;;15.10;90.00;;;;;;2012692;28;20423;-80
2022/03/04 02:53:47;;;;;;;3.53;3.00;;;15.10;89.30;;;;;;2012149;28;20226;-81
2022/03/04 02:54:45;;;;;;;3.90;2.67;;;15.20;88.60;;;;;;2012142;28;20234;-79
2022/03/04 02:55:44;;;;;;;8.60;3.93;;;15.10;88.70;;;;;;2012426;28;20252;-81
2022/03/04 02:56:42;;;;;;;5.10;3.63;;;15.20;90.00;;;;;;2012762;28;20632;-80
2022/03/04 02:57:46;;;;;;;3.90;2.90;;;15.10;88.90;;;;;;2012820;28;20176;-81
2022/03/04 02:58:45;;;;;;;5.78;3.50;;;15.20;90.10;;;;;;2012862;28;20192;-80
2022/03/04 02:59:43;;;;;;;3.37;2.90;;;15.20;91.50;;;;;;2012799;28;20188;-80
2022/03/04 03:00:42;;;;;;;4.23;3.33;;;15.20;91.30;;;;;;2012782;28;20180;-80
2022/03/04 03:01:41;;;;;;;3.73;2.33;;;15.10;91.30;;;;;;2012041;28;20176;-81
2022/03/04 03:02:40;;;;;;;4.80;3.63;;;15.10;90.60;;;;;;2012054;28;20408;-81
2022/03/04 03:03:38;;;;;;;3.78;3.30;;;15.10;90.60;;;;;;2012360;28;20200;-80
2022/03/04 03:04:37;;;;;;;5.30;3.20;;;15.20;90.90;;;;;;2012790;28;20644;-80
2022/03/04 03:05:36;;;;;;;4.13;3.20;;;15.20;91.30;;;;;;2012664;28;20635;-80
2022/03/04 03:06:35;;;;;;;5.57;3.53;;;15.20;91.20;;;;;;2012913;28;20168;-80
2022/03/04 03:07:34;;;;;;;3.40;2.73;;;15.20;91.20;;;;;;2012030;28;20177;-80
2022/03/04 03:08:33;;;;;;;4.57;2.90;;;15.20;91.00;;;;;;2012097;28;20168;-82
2022/03/04 03:09:32;;;;;;;4.70;3.13;;;15.20;90.90;;;;;;2011962;28;20179;-81
2022/03/04 03:10:32;;;;;;;3.90;3.20;;;15.20;91.80;;;;;;2012114;28;20176;-80
2022/03/04 03:11:32;;;;;;;3.38;2.85;;;15.20;91.50;;;;;;2012745;28;20587;-80
2022/03/04 03:12:31;;;;;;;4.18;2.60;;;15.10;91.60;;;;;;2012590;28;20187;-80
2022/03/04 03:13:29;;;;;;;3.57;2.80;;;15.20;91.10;;;;;;2012725;28;20165;-81
2022/03/04 03:14:28;;;;;;;3.93;3.43;;;15.20;91.30;;;;;;2012534;28;20214;-81
2022/03/04 03:15:27;;;;;;;3.07;2.70;;;15.10;91.50;;;;;;2012612;28;20170;-80
2022/03/04 03:16:26;;;;;;;3.00;2.47;;;15.10;92.00;;;;;;2012825;28;20183;-80
2022/03/04 03:17:24;;;;;;;5.97;3.57;;;15.10;92.00;;;;;;2012767;28;20177;-80
2022/03/04 03:18:23;;;;;;;5.20;3.10;;;15.20;91.40;;;;;;2012652;28;20169;-80
2022/03/04 03:19:21;;;;;;;5.20;3.03;;;15.20;91.60;;;;;;2012658;28;20299;-80
2022/03/04 03:20:20;;;;;;;4.27;3.07;;;15.20;90.90;;;;;;2012874;28;20183;-81
2022/03/04 03:21:19;;;;;;;3.47;2.90;;;15.20;91.70;;;;;;2012688;28;20215;-80
2022/03/04 03:22:18;;;;;;;4.90;3.30;;;15.20;90.00;;;;;;2012752;28;20439;-80
2022/03/04 03:23:18;;;;;;;3.90;2.70;;;15.20;91.00;;;;;;2011728;28;20184;-80
2022/03/04 03:24:16;;;;;;;3.65;3.05;;;15.20;90.70;;;;;;2011966;28;20180;-81
2022/03/04 03:25:15;;;;;;;3.60;2.63;;;15.20;91.00;;;;;;2012530;28;20211;-80
2022/03/04 03:26:14;;;;;;;3.67;2.50;;;15.20;89.50;;;;;;2012497;28;20165;-80
2022/03/04 03:27:13;;;;;;;2.77;2.30;;;15.10;90.90;;;;;;2012544;28;20196;-80
2022/03/04 03:28:12;;;;;;;4.07;3.00;;;15.20;90.60;;;;;;2012594;28;20533;-80
2022/03/04 03:29:10;;;;;;;3.50;2.30;;;15.20;90.10;;;;;;2012667;28;20180;-80
2022/03/04 03:30:10;;;;;;;4.70;3.10;;;15.10;90.00;;;;;;2011968;28;20183;-81
2022/03/04 03:31:08;;;;;;;2.85;2.33;;;15.10;90.40;;;;;;2011900;28;20184;-80
2022/03/04 03:32:08;;;;;;;3.43;2.97;;;15.10;90.20;;;;;;2012480;28;20203;-79
2022/03/04 03:33:06;;;;;;;4.50;3.10;;;15.20;90.30;;;;;;2012506;28;20201;-80
2022/03/04 03:34:05;;;;;;;3.63;2.70;;;15.20;90.60;;;;;;2012478;28;20643;-79
2022/03/04 03:35:04;;;;;;;4.30;2.83;;;15.10;90.10;;;;;;2012560;28;20320;-81
2022/03/04 03:36:04;;;;;;;5.78;3.25;;;15.10;90.30;;;;;;2012584;28;20173;-80
2022/03/04 03:37:03;;;;;;;3.70;3.00;;;15.10;90.40;;;;;;2012461;28;20177;-80
2022/03/04 03:38:02;;;;;;;3.42;2.60;;;15.10;90.40;;;;;;2012533;28;20647;-80
2022/03/04 03:39:01;;;;;;;4.18;3.00;;;15.10;90.30;;;;;;2012226;28;20544;-80
2022/03/04 03:40:00;;;;;;;3.93;2.50;;;15.10;90.50;;;;;;2012508;28;20176;-80
2022/03/04 03:40:58;;;;;;;3.77;3.00;;;15.10;90.30;;;;;;2012614;28;20195;-80
2022/03/04 03:41:57;;;;;;;3.00;2.70;;;15.10;90.00;;;;;;2012535;28;20187;-80
2022/03/04 03:42:56;;;;;;;4.33;2.80;;;15.10;90.00;;;;;;2012389;28;20239;-80
2022/03/04 03:43:54;;;;;;;3.83;2.70;;;15.10;90.30;;;;;;2011708;28;20208;-81
2022/03/04 03:44:53;;;;;;;4.40;3.20;;;15.10;90.40;;;;;;2012000;28;20259;-80
2022/03/04 03:45:51;;;;;;;4.13;3.10;;;15.10;90.80;;;;;;2012524;28;20181;-80
2022/03/04 03:46:50;;;;;;;3.77;2.77;;;15.10;90.30;;;;;;2012699;28;20196;-81
2022/03/04 03:47:48;;;;;;;3.03;2.37;;;15.10;90.60;;;;;;2012474;28;20191;-80
2022/03/04 03:48:47;;;;;;;2.73;2.23;;;15.10;90.70;;;;;;2012454;28;20657;-81
2022/03/04 03:49:45;;;;;;;3.27;2.70;;;15.00;90.50;;;;;;2012247;28;20267;-80
2022/03/04 03:50:44;;;;;;;3.70;2.80;;;15.10;90.40;;;;;;2012383;28;20246;-80
2022/03/04 03:51:43;;;;;;;3.57;3.00;;;15.00;90.70;;;;;;2012442;28;20180;-79
2022/03/04 03:52:41;;;;;;;3.80;2.77;;;15.00;90.70;;;;;;2012438;28;20172;-81
2022/03/04 03:53:40;;;;;;;3.90;3.03;;;15.00;90.50;;;;;;2012404;28;20631;-81
2022/03/04 03:54:38;;;;;;;3.37;2.83;;;15.00;90.70;;;;;;2012520;28;20188;-80
2022/03/04 03:55:38;;;;;;;4.00;2.67;;;15.00;90.90;;;;;;2012424;28;20185;-80
2022/03/04 03:56:36;;;;;;;4.35;3.30;;;15.00;91.20;;;;;;2012482;28;20233;-80
2022/03/04 03:57:35;;;;;;;5.93;3.13;;;15.00;91.30;;;;;;2012446;28;20181;-81
2022/03/04 03:58:34;;;;;;;4.97;3.37;;;15.10;91.20;;;;;;2012502;28;20180;-81
2022/03/04 03:59:32;;;;;;;3.83;2.73;;;15.00;91.30;;;;;;2012331;28;20255;-80
2022/03/04 04:00:31;;;;;;;4.37;3.10;;;15.00;91.30;;;;;;2012324;28;20760;-81
2022/03/04 04:01:30;;;;;;;3.80;2.80;;;15.00;91.40;;;;;;2012402;28;20195;-81
2022/03/04 04:02:28;;;;;;;3.27;2.50;;;15.00;91.60;;;;;;2012409;28;20759;-80
2022/03/04 04:03:28;;;;;;;2.90;2.40;;;15.00;91.60;;;;;;2012285;28;20176;-81
2022/03/04 04:04:26;;;;;;;3.25;2.65;;;15.00;91.40;;;;;;2012319;28;20255;-80
2022/03/04 04:05:25;;;;;;;6.97;2.83;;;15.00;90.60;;;;;;2012463;28;20184;-81
2022/03/04 04:06:23;;;;;;;4.90;2.70;;;15.00;90.60;;;;;;2012506;28;20175;-81
2022/03/04 04:07:22;;;;;;;4.63;2.97;;;15.00;90.80;;;;;;2012425;28;20234;-81
2022/03/04 04:08:21;;;;;;;3.73;2.67;;;15.00;90.90;;;;;;2012316;28;20658;-81
2022/03/04 04:09:20;;;;;;;4.13;2.70;;;15.00;90.70;;;;;;2012563;28;20251;-81
2022/03/04 04:10:18;;;;;;;4.50;2.87;;;15.00;91.10;;;;;;2012408;28;20670;-81
2022/03/04 04:11:17;;;;;;;4.13;2.97;;;15.00;91.10;;;;;;2012462;28;20161;-81
2022/03/04 04:12:15;;;;;;;4.33;3.17;;;15.00;91.60;;;;;;2011445;28;20183;-81
2022/03/04 04:13:14;;;;;;;2.93;2.67;;;15.00;91.40;;;;;;2011605;28;20280;-80
2022/03/04 04:14:13;;;;;;;4.63;3.13;;;15.00;91.70;;;;;;2011146;28;20180;-81
2022/03/04 04:15:11;;;;;;;3.27;2.37;;;15.00;92.20;;;;;;2003785;28;20166;-81
2022/03/04 04:16:10;;;;;;;5.20;2.53;;;15.00;91.80;;;;;;2011405;28;20251;-81
2022/03/04 04:17:08;;;;;;;3.17;2.23;;;15.00;91.90;;;;;;2012312;28;20532;-81
2022/03/04 04:18:07;;;;;;;3.90;3.00;;;15.00;91.60;;;;;;2012455;28;20203;-81
2022/03/04 04:19:05;;;;;;;4.37;2.97;;;15.00;91.70;;;;;;2012209;28;20259;-81
2022/03/04 04:20:04;;;;;;;3.23;2.93;;;15.00;91.90;;;;;;2012356;28;20179;-81
2022/03/04 04:21:06;;;;;;;3.58;2.58;;;15.00;91.50;;;;;;2012288;28;20172;-81
2022/03/04 04:22:04;;;;;;;2.72;2.28;;;15.00;91.90;;;;;;2012405;28;20181;-82
2022/03/04 04:23:03;;;;;;;3.90;3.00;;;15.00;91.80;;;;;;2012172;28;20333;-82
2022/03/04 04:24:02;;;;;;;3.50;2.60;;;14.90;92.10;;;;;;2012129;28;20204;-80
2022/03/04 04:25:00;;;;;;;3.13;2.57;;;15.00;92.60;;;;;;2012233;28;20774;-81
2022/03/04 04:25:59;;;;;;;4.10;2.57;;;15.00;92.40;;;;;;2012308;28;20403;-80
2022/03/04 04:26:58;;;;;;;4.93;2.80;;;14.90;92.20;;;;;;2012274;28;20172;-81
2022/03/04 04:27:56;;;;;;;3.50;2.40;;;14.90;92.40;;;;;;2012367;28;20176;-81
2022/03/04 04:28:55;;;;;;;4.13;2.80;;;14.90;92.20;;;;;;2012200;28;20267;-81
2022/03/04 04:29:53;;;;;;;2.83;2.37;;;15.00;92.40;;;;;;2012254;28;20173;-81
2022/03/04 04:30:52;;;;;;;3.80;2.93;;;15.00;92.90;;;;;;2012291;28;20173;-81
2022/03/04 04:31:50;;;;;;;3.00;2.50;;;15.00;93.00;;;;;;2012507;28;20173;-81
2022/03/04 04:32:49;;;;;;;4.00;3.10;;;14.90;92.50;;;;;;2012513;28;20204;-81
2022/03/04 04:33:47;;;;;;;2.67;2.20;;;15.00;92.50;;;;;;2012818;28;20187;-81
2022/03/04 04:34:46;;;;;;;4.13;2.80;;;15.00;92.00;;;;;;2012743;28;20188;-81
2022/03/04 04:35:45;;;;;;;3.70;2.70;;;15.00;92.00;;;;;;2015960;28;20211;-80
2022/03/04 04:36:43;;;;;;;3.17;2.87;;;15.00;92.10;;;;;;2019004;28;20188;-79
2022/03/04 04:37:42;;;;;;;2.70;2.20;;;14.90;92.20;;;;;;2019402;28;20183;-79
2022/03/04 04:38:40;;;;;;;6.10;3.00;;;14.90;92.40;;;;;;2018868;28;20183;-79
2022/03/04 04:39:39;;;;;;;3.70;2.70;;;;;;;;;;2015039;28;20199;-81
2022/03/04 04:40:38;;;;;;;3.60;2.40;;;;;;;;;;2016744;28;20177;-81
2022/03/04 04:41:37;;;;;;;3.40;2.50;;;14.90;93.40;;;;;;2015313;28;20763;-81
2022/03/04 04:42:36;;;;;;;3.30;2.57;;;;;;;;;;2012028;28;20514;-81
2022/03/04 04:43:36;;;;;;;2.80;2.47;;;14.90;78.60;;;;;;2011769;28;20208;-81
2022/03/04 04:44:34;;;;;;;3.40;2.63;;;14.90;78.90;;;;;;2011824;28;20626;-81
2022/03/04 04:45:33;;;;;;;3.60;2.77;;;14.90;78.50;;;;;;2012225;28;20494;-81
2022/03/04 04:46:31;;;;;;;3.30;2.80;;;14.90;78.20;;;;;;2012137;28;20200;-81
2022/03/04 04:47:30;;;;;;;2.90;2.60;;;14.90;78.30;;;;;;2012114;28;20644;-81
2022/03/04 04:48:28;;;;;;;2.63;2.43;;;14.90;78.10;;;;;;2012198;28;20169;-81
2022/03/04 04:49:29;;;;;;;2.80;2.47;;;14.90;78.00;;;;;;2012232;28;20203;-80
2022/03/04 04:50:28;;;;;;;3.20;2.53;;;14.90;78.10;;;;;;2012096;28;20173;-80
2022/03/04 04:51:26;;;;;;;4.00;2.80;;;15.00;78.20;;;;;;2012311;28;20173;-81
2022/03/04 04:52:25;;;;;;;2.83;2.30;;;14.90;78.00;;;;;;2012075;28;20169;-79
2022/03/04 04:53:24;;;;;;;3.10;2.53;;;14.90;77.90;;;;;;2011518;28;20663;-81
2022/03/04 04:54:23;;;;;;;4.37;2.87;;;14.90;78.00;;;;;;2011682;28;20399;-80
2022/03/04 04:55:21;;;;;;;2.63;2.43;;;14.90;78.10;;;;;;2011533;28;20247;-80
2022/03/04 04:56:20;;;;;;;3.03;2.70;;;14.90;78.30;;;;;;2011579;28;20615;-81
2022/03/04 04:57:19;;;;;;;2.83;2.50;;;14.90;78.20;;;;;;2012102;28;20602;-81
2022/03/04 04:58:17;;;;;;;3.37;2.83;;;14.90;78.30;;;;;;2011509;28;20177;-81
2022/03/04 04:59:16;;;;;;;4.83;3.20;;;14.90;78.50;;;;;;2011442;28;20535;-81
2022/03/04 05:00:15;;;;;;;4.00;3.03;;;14.90;78.80;;;;;;2011992;28;20176;-80
2022/03/04 05:01:13;;;;;;;3.20;2.27;;;14.90;79.10;;;;;;2012194;28;20204;-81
2022/03/04 05:02:12;;;;;;;2.70;2.03;;;14.90;79.60;;;;;;2013664;28;20630;-81
2022/03/04 05:03:11;;;;;;;4.07;2.93;;;14.90;80.10;;;;;;2013471;28;20263;-80
2022/03/04 05:04:09;;;;;;;2.73;2.33;;;14.90;80.30;;;;;;2013548;28;20200;-81
2022/03/04 05:05:08;;;;;;;2.87;2.30;;;14.90;80.70;;;;;;2013666;28;20176;-79
2022/03/04 05:06:07;;;;;;;4.80;2.77;;;15.00;81.40;;;;;;2012839;28;20183;-81
2022/03/04 05:07:06;;;;;;;5.13;2.70;;;14.80;81.50;;;;;;2012970;28;20658;-81